Time;durP1;ratioP1;P1;durP2;ratioP2;P2;SDS_P1;SDS_P2;PMS_P1;PMS_P2;Temp;Humidity;BMP_temperature;BMP_pressure;BME280_temperature;BME280_humidity;BME280_pressure;Samples;Min_cycle;Max_cycle;Signal;HPM_P1;HPM_P2
2022/08/12 00:44:35;;;;;;;6.93;3.90;;;18.20;99.90;;;;;;5045324;28;20884;-68
2022/08/12 00:47:01;;;;;;;6.93;3.88;;;18.20;99.90;;;;;;5040840;28;20484;-68
2022/08/12 00:49:29;;;;;;;7.90;4.10;;;18.10;99.90;;;;;;5045128;28;20037;-68
2022/08/12 00:52:10;;;;;;;6.20;4.10;;;18.10;99.90;;;;;;5060207;28;20048;-68
2022/08/12 00:54:49;;;;;;;6.25;3.97;;;18.10;99.90;;;;;;5043630;28;20041;-68
2022/08/12 00:57:16;;;;;;;7.43;3.90;;;18.00;99.90;;;;;;5040186;28;20111;-67
2022/08/12 00:59:49;;;;;;;5.88;4.10;;;18.00;99.90;;;;;;5042829;28;20073;-68
2022/08/12 01:02:30;;;;;;;7.28;4.32;;;18.00;99.90;;;;;;5050415;28;20044;-68
2022/08/12 01:13:17;;;;;;;7.82;4.25;;;17.90;99.90;;;;;;5044225;28;20076;-68
2022/08/12 01:15:58;;;;;;;6.93;4.47;;;17.80;99.90;;;;;;5047527;28;20491;-68
2022/08/12 01:18:31;;;;;;;6.45;4.03;;;17.90;99.90;;;;;;5063190;28;20045;-68
2022/08/12 01:21:02;;;;;;;6.28;4.38;;;17.90;99.90;;;;;;5048215;28;20060;-68
2022/08/12 01:23:47;;;;;;;7.82;5.22;;;17.90;99.90;;;;;;5047301;28;20056;-69
2022/08/12 01:26:24;;;;;;;8.82;5.53;;;17.80;99.90;;;;;;5048023;28;20048;-69
2022/08/12 01:29:02;;;;;;;7.80;5.30;;;17.60;99.90;;;;;;5048657;28;20041;-68
2022/08/12 01:31:29;;;;;;;6.63;5.72;;;17.40;99.90;;;;;;5047521;28;20033;-68
2022/08/12 01:34:02;;;;;;;9.20;6.60;;;17.40;99.90;;;;;;5045102;28;20087;-67
2022/08/12 01:36:35;;;;;;;6.53;5.55;;;17.30;99.90;;;;;;5060334;28;20040;-68
2022/08/12 01:39:02;;;;;;;11.25;5.47;;;17.20;99.90;;;;;;5050003;28;20080;-67
2022/08/12 01:41:30;;;;;;;9.18;6.00;;;17.20;99.90;;;;;;5064882;28;20120;-68
2022/08/12 01:43:59;;;;;;;9.82;5.55;;;17.20;99.90;;;;;;5042170;28;20461;-68
2022/08/12 01:47:04;;;;;;;7.05;5.32;;;17.20;99.90;;;;;;5062326;28;20052;-68
2022/08/12 01:50:05;;;;;;;6.43;5.38;;;17.20;99.90;;;;;;5049531;28;20487;-67
2022/08/12 01:52:52;;;;;;;9.93;5.43;;;17.20;99.90;;;;;;5066548;28;20068;-68
2022/08/12 01:55:27;;;;;;;5.70;5.10;;;17.30;99.90;;;;;;5055278;28;20040;-68
2022/08/12 01:58:28;;;;;;;7.70;5.47;;;17.30;99.90;;;;;;5053810;28;20456;-68
2022/08/12 02:01:07;;;;;;;8.02;5.72;;;17.30;99.90;;;;;;5059915;28;20385;-68
2022/08/12 02:12:24;;;;;;;7.32;6.13;;;17.10;99.90;;;;;;5065363;28;20056;-68
2022/08/12 02:15:24;;;;;;;9.38;5.65;;;17.00;99.90;;;;;;5050285;28;20102;-68
2022/08/12 02:18:02;;;;;;;8.85;6.05;;;16.90;99.90;;;;;;5051615;28;20040;-67
2022/08/12 02:20:52;;;;;;;9.70;6.43;;;16.90;99.90;;;;;;5050255;28;20099;-67
2022/08/12 02:23:22;;;;;;;8.25;6.30;;;16.90;99.90;;;;;;5052244;28;20051;-67
2022/08/12 02:25:54;;;;;;;10.98;6.53;;;17.00;99.90;;;;;;5047518;28;20048;-67
2022/08/12 02:28:20;;;;;;;;;;;17.00;99.90;;;;;;5049621;28;20071;-68
2022/08/12 02:30:46;;;;;;;10.57;6.97;;;17.00;99.90;;;;;;5051315;28;19916;-68
2022/08/12 02:33:12;;;;;;;10.80;6.82;;;17.00;99.90;;;;;;5047649;28;20075;-68
2022/08/12 02:35:38;;;;;;;12.43;6.43;;;17.00;99.90;;;;;;5043684;28;20073;-68
2022/08/12 02:38:08;;;;;;;10.07;6.10;;;17.00;99.90;;;;;;5051378;28;20045;-68
2022/08/12 02:40:37;;;;;;;7.68;6.25;;;17.00;99.90;;;;;;5048493;28;20036;-67
2022/08/12 02:43:26;;;;;;;11.85;6.60;;;17.00;99.90;;;;;;5031630;28;20112;-67
2022/08/12 02:45:56;;;;;;;8.32;6.47;;;17.00;99.90;;;;;;5044261;28;20045;-67
2022/08/12 02:48:29;;;;;;;9.95;6.57;;;17.00;99.90;;;;;;5044613;28;20132;-67
2022/08/12 02:51:01;;;;;;;11.85;6.43;;;17.00;99.90;;;;;;5051473;28;20025;-67
2022/08/12 02:53:27;;;;;;;;;;;17.00;99.90;;;;;;5064954;28;20047;-67
2022/08/12 02:55:53;;;;;;;13.40;6.53;;;17.00;99.90;;;;;;5050062;28;19920;-68
2022/08/12 02:58:19;;;;;;;11.05;6.90;;;17.00;99.90;;;;;;5050076;28;20041;-67
2022/08/12 03:00:46;;;;;;;9.63;6.15;;;16.90;99.90;;;;;;5050849;28;20128;-68
2022/08/12 03:03:13;;;;;;;8.27;7.20;;;16.90;99.90;;;;;;5037761;28;20071;-67
2022/08/12 03:05:57;;;;;;;11.32;7.18;;;16.90;99.90;;;;;;5037997;28;20086;-67
2022/08/12 03:08:28;;;;;;;9.82;6.55;;;16.90;99.90;;;;;;5048605;28;20053;-67
2022/08/12 03:11:16;;;;;;;7.95;6.53;;;16.90;99.90;;;;;;5051695;28;20039;-67
2022/08/12 03:13:56;;;;;;;10.40;7.00;;;16.90;99.90;;;;;;5047047;28;20072;-67
2022/08/12 03:16:22;;;;;;;10.10;6.88;;;16.80;99.90;;;;;;5044611;28;20057;-67
2022/08/12 03:18:50;;;;;;;9.38;6.50;;;16.80;99.90;;;;;;5044183;28;20037;-67
2022/08/12 03:21:18;;;;;;;13.77;7.38;;;16.70;99.90;;;;;;5048633;28;20077;-67
2022/08/12 03:23:45;;;;;;;25.10;7.22;;;16.70;99.90;;;;;;5044485;28;20545;-67
2022/08/12 03:26:12;;;;;;;8.45;6.97;;;16.60;99.90;;;;;;5062643;28;20094;-67
2022/08/12 03:28:50;;;;;;;11.48;7.50;;;16.60;99.90;;;;;;5047207;28;20052;-67
2022/08/12 03:31:21;;;;;;;10.23;6.80;;;16.50;99.90;;;;;;5047077;28;20065;-67
2022/08/12 03:33:48;;;;;;;11.48;7.43;;;16.50;99.90;;;;;;5061442;28;20109;-67
2022/08/12 03:36:19;;;;;;;8.65;7.18;;;16.50;99.90;;;;;;5045547;28;20043;-67
2022/08/12 03:39:18;;;;;;;10.05;7.35;;;16.40;99.90;;;;;;5047190;28;20037;-67
2022/08/12 03:41:51;;;;;;;8.77;6.65;;;16.40;99.90;;;;;;5046122;28;20045;-67
2022/08/12 04:01:26;;;;;;;11.10;7.45;;;16.30;99.90;;;;;;5046896;28;20055;-67
2022/08/12 04:03:52;;;;;;;;;;;16.20;99.90;;;;;;5051732;28;20048;-67
2022/08/12 04:06:27;;;;;;;10.45;7.03;;;16.20;99.90;;;;;;5048884;28;20235;-67
2022/08/12 04:08:56;;;;;;;9.88;6.70;;;16.10;99.90;;;;;;5053359;28;20090;-67
2022/08/12 04:14:11;;;;;;;10.88;7.00;;;16.10;99.90;;;;;;5030908;28;20068;-67
2022/08/12 04:16:37;;;;;;;11.57;7.32;;;16.10;99.90;;;;;;5047736;28;20029;-67
2022/08/12 04:19:04;;;;;;;9.52;7.20;;;16.10;99.90;;;;;;5049678;28;20098;-67
2022/08/12 04:21:31;;;;;;;12.55;7.80;;;16.10;99.90;;;;;;5048353;28;20488;-67
2022/08/12 04:23:58;;;;;;;9.57;7.05;;;16.10;99.90;;;;;;5066090;28;20067;-68
2022/08/12 04:26:24;;;;;;;9.77;7.28;;;16.10;99.90;;;;;;5049406;28;20049;-67
2022/08/12 04:28:50;;;;;;;15.95;7.85;;;16.10;99.90;;;;;;5048344;28;20044;-67
2022/08/12 04:31:16;;;;;;;11.23;7.88;;;16.10;99.90;;;;;;5048794;28;20044;-67
2022/08/12 04:33:42;;;;;;;10.05;7.20;;;16.10;99.90;;;;;;5044283;28;20029;-67
2022/08/12 04:36:08;;;;;;;9.30;7.20;;;16.10;99.90;;;;;;5048338;28;20039;-67
2022/08/12 04:38:35;;;;;;;13.43;7.60;;;16.10;99.90;;;;;;5048126;28;20402;-67
2022/08/12 04:41:01;;;;;;;9.23;7.43;;;16.20;99.90;;;;;;5048274;28;20036;-67
2022/08/12 04:43:28;;;;;;;9.63;7.68;;;16.20;99.90;;;;;;5063744;28;20045;-67
2022/08/12 04:45:54;;;;;;;12.32;7.82;;;16.20;99.90;;;;;;5048327;28;20052;-67
2022/08/12 04:48:20;;;;;;;9.88;7.30;;;16.20;99.90;;;;;;5061040;28;20048;-67
2022/08/12 04:50:45;;;;;;;12.30;7.43;;;16.20;99.90;;;;;;5048049;28;20490;-67
2022/08/12 04:53:12;;;;;;;9.20;6.78;;;16.20;99.90;;;;;;5047990;28;20102;-67
2022/08/12 04:55:38;;;;;;;14.13;7.68;;;16.30;99.90;;;;;;5048171;28;20068;-67
2022/08/12 04:58:05;;;;;;;9.77;7.15;;;16.30;99.90;;;;;;5048894;28;20044;-67
2022/08/12 05:00:32;;;;;;;11.13;7.28;;;16.30;99.90;;;;;;5047363;28;20533;-67
2022/08/12 05:02:57;;;;;;;9.93;7.22;;;16.40;99.90;;;;;;5047010;28;20102;-67
2022/08/12 05:05:23;;;;;;;16.35;7.75;;;16.40;99.90;;;;;;5048763;28;20041;-67
2022/08/12 05:07:50;;;;;;;11.52;7.68;;;16.50;99.90;;;;;;5048382;28;20036;-67
2022/08/12 05:10:18;;;;;;;11.57;7.60;;;16.50;99.90;;;;;;5048891;28;20045;-67
2022/08/12 05:12:53;;;;;;;9.63;7.07;;;16.60;99.90;;;;;;5063977;28;20037;-67
2022/08/12 05:15:19;;;;;;;12.27;7.60;;;16.60;99.90;;;;;;5047810;28;20040;-67
2022/08/12 05:17:45;;;;;;;12.23;7.28;;;16.60;99.90;;;;;;5053667;28;20090;-67
2022/08/12 05:20:14;;;;;;;9.18;7.53;;;16.70;99.90;;;;;;5064272;28;20060;-67
2022/08/12 05:22:40;;;;;;;13.60;7.45;;;16.70;99.90;;;;;;5046787;28;20124;-67
2022/08/12 05:25:06;;;;;;;11.25;7.70;;;16.80;99.90;;;;;;5046219;28;20037;-67
2022/08/12 05:27:33;;;;;;;11.45;7.03;;;16.80;99.90;;;;;;5045291;28;20529;-67
2022/08/12 05:29:59;;;;;;;10.68;7.30;;;16.90;99.90;;;;;;5043879;28;20045;-67
2022/08/12 05:32:24;;;;;;;11.25;7.38;;;16.90;99.90;;;;;;5046809;28;20048;-67
2022/08/12 05:34:52;;;;;;;10.23;7.40;;;17.00;99.90;;;;;;5057822;28;20036;-67
2022/08/12 05:37:18;;;;;;;11.73;7.97;;;17.10;99.90;;;;;;5044960;28;20065;-67
2022/08/12 05:39:44;;;;;;;14.73;8.30;;;17.10;99.90;;;;;;5045490;28;20036;-67
2022/08/12 05:42:10;;;;;;;11.98;7.95;;;17.20;99.90;;;;;;5029527;28;20040;-67
2022/08/12 05:44:38;;;;;;;13.05;8.30;;;17.30;99.90;;;;;;5044396;28;20475;-67
2022/08/12 05:47:03;;;;;;;11.38;8.15;;;17.30;99.90;;;;;;5029552;28;20041;-68
2022/08/12 05:49:29;;;;;;;12.18;7.95;;;17.50;99.90;;;;;;5049160;28;20051;-66
2022/08/12 05:51:56;;;;;;;13.60;8.63;;;17.50;99.90;;;;;;5043768;28;20075;-67
2022/08/12 05:54:22;;;;;;;11.95;8.13;;;17.60;99.90;;;;;;5043785;28;20037;-67
2022/08/12 05:56:47;;;;;;;10.23;8.18;;;17.80;99.90;;;;;;5061633;28;20485;-66
2022/08/12 05:59:20;;;;;;;12.60;8.95;;;17.80;99.90;;;;;;5065239;28;20178;-68
2022/08/12 06:01:46;;;;;;;15.35;8.95;;;18.00;99.90;;;;;;5053735;28;20088;-67
2022/08/12 06:04:12;;;;;;;12.63;7.68;;;18.10;99.90;;;;;;5067839;28;20099;-66
2022/08/12 06:06:40;;;;;;;14.75;8.05;;;18.20;99.90;;;;;;5049120;28;20036;-66
2022/08/12 06:09:09;;;;;;;12.82;8.23;;;18.20;99.90;;;;;;5062871;28;20043;-66
2022/08/12 06:11:36;;;;;;;11.30;8.00;;;18.40;99.90;;;;;;5047518;28;20041;-66
2022/08/12 06:14:01;;;;;;;12.32;8.15;;;18.50;99.90;;;;;;5048674;28;20045;-66
2022/08/12 06:16:27;;;;;;;11.00;8.15;;;18.50;99.90;;;;;;5036425;28;20036;-66
2022/08/12 06:18:53;;;;;;;11.18;7.63;;;18.60;99.90;;;;;;5049362;28;20064;-65
2022/08/12 06:21:22;;;;;;;12.48;8.27;;;18.80;99.90;;;;;;5067376;28;20358;-66
2022/08/12 06:23:49;;;;;;;11.07;7.95;;;18.90;99.90;;;;;;5050355;28;20045;-66
2022/08/12 06:26:15;;;;;;;12.90;7.55;;;19.00;99.90;;;;;;5054283;28;20075;-65
2022/08/12 06:28:59;;;;;;;10.75;7.90;;;19.10;99.90;;;;;;5036160;28;20036;-67
2022/08/12 06:31:25;;;;;;;9.82;7.18;;;19.20;99.90;;;;;;5046127;28;20112;-65
2022/08/12 06:33:54;;;;;;;11.15;7.70;;;19.30;99.90;;;;;;5052435;28;20033;-66
2022/08/12 06:36:22;;;;;;;8.82;7.25;;;19.40;99.90;;;;;;5052986;28;20128;-66
2022/08/12 06:38:48;;;;;;;10.63;7.40;;;19.60;99.90;;;;;;5053605;28;20079;-67
2022/08/12 06:43:58;;;;;;;12.00;7.55;;;19.70;99.90;;;;;;5053385;28;20567;-67
2022/08/12 06:46:48;;;;;;;10.93;7.13;;;19.80;99.90;;;;;;5052290;28;20116;-68
2022/08/12 06:49:13;;;;;;;10.93;7.03;;;19.90;99.90;;;;;;5053133;28;20076;-67
2022/08/12 06:51:39;;;;;;;14.45;6.75;;;20.10;99.90;;;;;;5049092;28;20076;-68
2022/08/12 06:54:06;;;;;;;12.68;7.30;;;20.20;99.90;;;;;;5043230;28;20087;-67
2022/08/12 06:56:33;;;;;;;11.70;7.15;;;20.30;99.90;;;;;;5053657;28;20083;-67
2022/08/12 06:59:01;;;;;;;11.30;6.35;;;20.40;99.90;;;;;;5053292;28;20444;-66
2022/08/12 07:01:30;;;;;;;11.57;7.20;;;20.60;99.90;;;;;;5052855;28;20128;-67
2022/08/12 07:03:55;;;;;;;10.52;7.13;;;20.70;99.90;;;;;;5070005;28;20056;-65
2022/08/12 07:06:21;;;;;;;9.35;7.32;;;20.80;99.90;;;;;;5053106;28;20052;-66
2022/08/12 07:08:46;;;;;;;11.90;7.30;;;20.90;99.90;;;;;;5081144;28;20090;-66
2022/08/12 07:11:14;;;;;;;9.82;6.47;;;21.00;99.90;;;;;;5052561;28;20051;-68
2022/08/12 07:13:42;;;;;;;9.98;6.22;;;21.10;99.90;;;;;;5045985;28;20063;-67
2022/08/12 07:16:12;;;;;;;10.02;6.10;;;21.20;99.90;;;;;;5057742;28;20344;-67
2022/08/12 07:18:40;;;;;;;14.85;6.40;;;21.30;99.90;;;;;;5047585;28;20090;-67
2022/08/12 07:21:06;;;;;;;8.15;5.78;;;21.50;99.90;;;;;;5046158;28;20449;-67
2022/08/12 07:23:35;;;;;;;9.93;5.72;;;21.60;99.90;;;;;;5060157;28;20048;-67
2022/08/12 07:26:03;;;;;;;12.20;6.00;;;21.70;99.90;;;;;;5039130;28;20522;-66
2022/08/12 07:28:32;;;;;;;9.98;5.80;;;21.80;99.90;;;;;;5036635;28;20544;-67
2022/08/12 07:30:58;;;;;;;12.60;5.78;;;21.90;99.90;;;;;;5036040;28;20039;-67
2022/08/12 07:33:27;;;;;;;8.00;5.60;;;22.10;99.90;;;;;;5042561;28;20045;-67
2022/08/12 07:35:56;;;;;;;8.55;5.60;;;22.20;99.90;;;;;;5037504;28;20056;-66
2022/08/12 07:38:25;;;;;;;10.50;5.65;;;22.20;99.90;;;;;;5035994;28;20495;-66
2022/08/12 07:40:57;;;;;;;11.57;5.53;;;22.40;99.90;;;;;;5054530;28;20072;-66
2022/08/12 07:43:23;;;;;;;10.32;5.40;;;22.50;99.90;;;;;;5039397;28;20048;-68
2022/08/12 07:45:50;;;;;;;9.10;5.18;;;22.60;99.90;;;;;;5062328;28;20033;-67
2022/08/12 07:48:16;;;;;;;7.80;5.55;;;22.70;99.90;;;;;;5045044;28;20041;-67
2022/08/12 07:50:42;;;;;;;7.80;4.95;;;22.80;99.90;;;;;;5041520;28;20506;-67
2022/08/12 07:53:08;;;;;;;6.95;4.82;;;22.90;99.90;;;;;;5062514;28;20060;-67
2022/08/12 07:55:35;;;;;;;12.88;5.47;;;23.00;99.90;;;;;;5046205;28;20385;-66
2022/08/12 07:58:01;;;;;;;9.02;4.60;;;23.10;99.90;;;;;;5065183;28;20051;-66
2022/08/12 08:00:30;;;;;;;7.05;4.95;;;23.30;99.90;;;;;;5045468;28;20508;-67
2022/08/12 08:02:57;;;;;;;7.40;5.13;;;23.30;99.90;;;;;;5048157;28;20036;-67
2022/08/12 08:05:25;;;;;;;6.63;5.22;;;23.40;99.90;;;;;;5046663;28;20051;-67
2022/08/12 08:07:52;;;;;;;8.95;4.88;;;23.50;99.90;;;;;;5049732;28;20403;-68
2022/08/12 08:10:19;;;;;;;7.28;4.38;;;23.60;99.90;;;;;;5066421;28;20101;-67
2022/08/12 08:12:55;;;;;;;6.30;4.53;;;23.70;99.90;;;;;;5048630;28;20033;-68
2022/08/12 08:15:29;;;;;;;8.35;4.90;;;23.80;99.90;;;;;;5057572;28;20040;-67
2022/08/12 08:18:04;;;;;;;7.63;4.40;;;23.90;99.90;;;;;;5064276;28;20037;-67
2022/08/12 08:20:32;;;;;;;7.00;4.20;;;24.10;99.90;;;;;;5048086;28;20046;-67
2022/08/12 08:23:04;;;;;;;10.32;4.95;;;24.20;99.90;;;;;;5047314;28;20072;-67
2022/08/12 08:25:31;;;;;;;6.90;4.60;;;24.30;99.90;;;;;;5047831;28;20458;-68
2022/08/12 08:28:11;;;;;;;6.93;4.40;;;24.40;99.90;;;;;;5042953;28;20216;-67
2022/08/12 08:30:43;;;;;;;7.20;4.38;;;24.60;99.90;;;;;;5048699;28;20052;-67
2022/08/12 08:33:10;;;;;;;6.45;4.25;;;24.70;99.90;;;;;;5046690;28;20078;-67
2022/08/12 08:35:37;;;;;;;12.63;4.30;;;24.80;99.90;;;;;;5047949;28;20052;-68
2022/08/12 08:38:14;;;;;;;7.35;4.22;;;24.90;99.90;;;;;;5045702;28;20138;-67
2022/08/12 08:43:31;;;;;;;6.70;4.15;;;25.10;99.90;;;;;;5053051;28;20569;-68
2022/08/12 08:45:57;;;;;;;6.60;3.97;;;25.20;99.90;;;;;;5028137;28;20073;-68
2022/08/12 08:48:24;;;;;;;8.68;4.82;;;25.30;99.90;;;;;;5033745;28;20037;-68
2022/08/12 08:50:50;;;;;;;7.47;4.05;;;25.40;99.90;;;;;;5048441;28;20037;-68
2022/08/12 08:53:17;;;;;;;4.55;3.90;;;25.50;99.90;;;;;;5048016;28;20075;-69
2022/08/12 08:55:43;;;;;;;7.53;3.78;;;25.50;99.90;;;;;;5047166;28;20618;-69
2022/08/12 08:58:09;;;;;;;5.85;4.30;;;25.60;99.90;;;;;;5047316;28;20061;-69
2022/08/12 09:00:38;;;;;;;10.88;3.97;;;25.70;99.90;;;;;;5053448;28;20041;-69
2022/08/12 09:03:04;;;;;;;8.27;4.63;;;25.80;99.90;;;;;;5059555;28;20036;-67
2022/08/12 09:05:30;;;;;;;7.57;4.20;;;25.90;99.90;;;;;;5046120;28;20129;-68
2022/08/12 09:08:00;;;;;;;7.75;4.28;;;26.10;99.90;;;;;;5048128;28;20083;-68
2022/08/12 09:10:25;;;;;;;8.40;4.40;;;26.10;99.90;;;;;;5046345;28;20068;-67
2022/08/12 09:15:35;;;;;;;4.70;3.95;;;26.30;99.90;;;;;;5040322;28;20458;-68
2022/08/12 09:18:04;;;;;;;6.38;4.30;;;26.40;99.90;;;;;;5046575;28;20378;-68
2022/08/12 09:20:32;;;;;;;6.32;4.10;;;26.50;99.90;;;;;;5044995;28;20091;-68
2022/08/12 09:23:00;;;;;;;6.55;4.22;;;26.70;99.90;;;;;;5051239;28;20056;-66
2022/08/12 09:25:30;;;;;;;7.15;4.68;;;26.70;99.90;;;;;;5046327;28;20084;-67
2022/08/12 09:27:57;;;;;;;10.80;4.35;;;26.80;99.90;;;;;;5064305;28;20048;-68
2022/08/12 09:30:24;;;;;;;7.85;3.83;;;27.00;99.90;;;;;;5068749;28;20128;-68
2022/08/12 09:32:51;;;;;;;5.68;4.18;;;27.10;99.90;;;;;;5052207;28;20322;-69
2022/08/12 09:35:19;;;;;;;8.52;4.50;;;27.20;99.90;;;;;;5054468;28;20051;-68
2022/08/12 09:37:54;;;;;;;7.10;4.13;;;27.30;99.90;;;;;;5042805;28;20033;-69
2022/08/12 09:40:21;;;;;;;5.60;4.53;;;27.30;99.50;;;;;;5047929;28;20488;-67
2022/08/12 09:45:33;;;;;;;6.35;4.45;;;27.50;99.40;;;;;;5036416;28;20095;-66
2022/08/12 09:48:05;;;;;;;6.90;4.07;;;27.60;99.20;;;;;;5049983;28;20045;-66
2022/08/12 09:50:31;;;;;;;4.80;3.88;;;27.70;98.50;;;;;;5048674;28;20055;-67
2022/08/12 09:53:13;;;;;;;4.47;4.05;;;27.80;98.80;;;;;;5046613;28;21418;-67
2022/08/12 09:55:47;;;;;;;5.68;3.97;;;27.80;97.60;;;;;;5046574;28;20053;-68
2022/08/12 09:58:15;;;;;;;4.40;4.00;;;27.90;97.30;;;;;;5047035;28;20489;-68
2022/08/12 10:00:43;;;;;;;5.00;4.13;;;28.00;97.70;;;;;;5063784;28;20329;-66
2022/08/12 10:03:09;;;;;;;4.82;3.80;;;28.10;97.50;;;;;;5048333;28;20063;-68
2022/08/12 10:05:41;;;;;;;7.40;4.30;;;28.20;96.60;;;;;;5047156;28;20033;-67
2022/08/12 10:08:10;;;;;;;7.53;3.70;;;28.20;95.70;;;;;;5046523;28;20052;-66
2022/08/12 10:13:42;;;;;;;6.10;3.83;;;28.30;93.60;;;;;;5048603;28;20178;-67
2022/08/12 10:16:16;;;;;;;5.65;3.78;;;28.40;93.70;;;;;;5059527;28;20044;-66
2022/08/12 10:18:44;;;;;;;8.55;3.60;;;28.40;93.40;;;;;;5062314;28;20106;-68
2022/08/12 10:21:20;;;;;;;6.20;3.00;;;28.50;92.60;;;;;;5033589;28;20408;-67
2022/08/12 10:23:47;;;;;;;8.05;3.40;;;28.50;91.50;;;;;;5050104;28;20048;-68
2022/08/12 10:31:44;;;;;;;8.25;3.42;;;28.60;90.20;;;;;;5051915;28;20577;-67
2022/08/12 10:34:12;;;;;;;8.75;3.58;;;28.70;88.90;;;;;;5050939;28;20041;-69
2022/08/12 10:36:39;;;;;;;8.38;3.30;;;28.70;86.40;;;;;;5050324;28;20052;-69
2022/08/12 10:39:11;;;;;;;7.55;3.15;;;28.70;85.00;;;;;;5051108;28;20403;-69
2022/08/12 10:44:22;;;;;;;4.13;3.20;;;28.80;85.10;;;;;;5066687;28;19927;-69
2022/08/12 10:46:51;;;;;;;4.85;3.20;;;28.90;82.30;;;;;;5041004;28;20036;-66
2022/08/12 10:49:18;;;;;;;7.18;3.10;;;28.90;83.70;;;;;;5049270;28;20060;-67
2022/08/12 10:51:44;;;;;;;4.35;2.75;;;29.00;81.40;;;;;;5041623;28;20124;-67
2022/08/12 10:54:12;;;;;;;3.72;2.90;;;29.00;80.70;;;;;;5039564;28;20052;-69
2022/08/12 10:56:40;;;;;;;4.15;3.05;;;29.00;81.80;;;;;;5046259;28;20407;-68
2022/08/12 10:59:06;;;;;;;4.13;3.10;;;29.10;79.40;;;;;;5049033;28;20505;-66
2022/08/12 11:01:32;;;;;;;5.63;3.15;;;29.10;81.80;;;;;;5040602;28;20131;-69
2022/08/12 11:04:00;;;;;;;4.57;2.75;;;29.10;80.20;;;;;;5050055;28;20045;-68
2022/08/12 11:06:26;;;;;;;11.07;2.58;;;29.10;77.50;;;;;;5055771;28;20109;-68
2022/08/12 11:08:55;;;;;;;4.28;2.88;;;29.10;74.70;;;;;;5048523;28;20434;-68
2022/08/12 11:11:21;;;;;;;5.28;2.72;;;29.10;76.00;;;;;;5038568;28;20048;-68
2022/08/12 11:13:47;;;;;;;4.68;2.70;;;29.20;78.30;;;;;;5046136;28;20460;-66
2022/08/12 11:16:13;;;;;;;4.70;3.08;;;29.30;78.40;;;;;;5041239;28;20124;-68
2022/08/12 11:18:39;;;;;;;4.57;2.70;;;29.30;79.60;;;;;;5030673;28;20037;-66
2022/08/12 11:21:05;;;;;;;5.60;2.80;;;29.30;79.20;;;;;;5044202;28;20094;-68
2022/08/12 11:23:31;;;;;;;4.05;3.00;;;29.30;78.80;;;;;;5057397;28;20120;-68
2022/08/12 11:25:56;;;;;;;4.70;3.03;;;29.30;74.90;;;;;;5042857;28;20200;-68
2022/08/12 11:28:22;;;;;;;3.05;2.85;;;29.30;75.70;;;;;;5047666;28;20053;-68
2022/08/12 11:30:47;;;;;;;4.32;3.10;;;29.40;75.90;;;;;;5048307;28;20029;-66
2022/08/12 11:33:13;;;;;;;4.25;2.90;;;29.30;75.80;;;;;;5065550;28;20045;-68
2022/08/12 11:35:40;;;;;;;6.95;3.05;;;29.30;75.70;;;;;;5047797;28;20488;-68
2022/08/12 11:38:06;;;;;;;7.25;3.10;;;29.40;73.60;;;;;;5045181;28;20112;-67
2022/08/12 11:40:32;;;;;;;4.32;2.58;;;29.40;74.70;;;;;;5050278;28;20053;-67
2022/08/12 11:42:59;;;;;;;6.10;2.95;;;29.50;75.50;;;;;;5049651;28;20056;-67
2022/08/12 11:45:29;;;;;;;5.03;3.42;;;29.40;70.70;;;;;;5039441;28;20115;-67
2022/08/12 11:47:55;;;;;;;4.10;3.60;;;29.40;73.40;;;;;;5048853;28;20077;-68
2022/08/12 11:50:22;;;;;;;5.82;3.60;;;29.50;74.00;;;;;;5049212;28;20056;-68
2022/08/12 11:52:49;;;;;;;5.22;3.30;;;29.50;74.60;;;;;;5046183;28;20056;-68
2022/08/12 11:55:15;;;;;;;5.50;3.50;;;29.50;74.90;;;;;;5065671;28;20100;-71
2022/08/12 11:57:52;;;;;;;4.43;3.17;;;29.50;72.30;;;;;;5049064;28;20040;-69
2022/08/12 12:00:18;;;;;;;3.50;3.20;;;29.60;73.70;;;;;;5048948;28;20110;-70
2022/08/12 12:02:44;;;;;;;6.47;3.20;;;29.60;72.30;;;;;;5048998;28;20033;-68
2022/08/12 12:05:09;;;;;;;4.07;3.28;;;29.70;73.30;;;;;;5048816;28;20103;-68
2022/08/12 12:07:43;;;;;;;4.80;3.08;;;29.70;73.20;;;;;;5049023;28;20152;-70
2022/08/12 12:10:14;;;;;;;6.68;3.10;;;29.80;73.20;;;;;;5068630;28;20120;-68
2022/08/12 12:12:41;;;;;;;7.78;3.22;;;29.80;73.70;;;;;;5068879;28;20090;-68
2022/08/12 12:15:07;;;;;;;5.75;3.40;;;29.90;72.40;;;;;;5049311;28;20697;-69
2022/08/12 12:17:38;;;;;;;4.50;3.17;;;29.90;73.00;;;;;;5046511;28;20076;-67
2022/08/12 12:20:08;;;;;;;6.00;3.50;;;29.90;72.10;;;;;;5047432;28;20039;-67
2022/08/12 12:22:34;;;;;;;4.25;3.72;;;29.90;73.30;;;;;;5048643;28;20130;-68
2022/08/12 12:25:00;;;;;;;4.20;3.42;;;29.90;74.70;;;;;;5047637;28;20090;-68
2022/08/12 12:27:26;;;;;;;3.42;3.08;;;30.00;75.70;;;;;;5044770;28;20705;-68
2022/08/12 12:29:51;;;;;;;4.95;3.40;;;30.10;75.50;;;;;;5047035;28;20076;-68
2022/08/12 12:32:18;;;;;;;6.65;3.53;;;30.10;74.30;;;;;;5046956;28;20070;-70
2022/08/12 12:34:44;;;;;;;3.97;3.40;;;30.10;73.30;;;;;;5047665;28;20033;-70
2022/08/12 12:37:12;;;;;;;8.75;3.90;;;30.00;72.80;;;;;;5046705;28;20049;-70
2022/08/12 12:39:42;;;;;;;6.32;3.45;;;30.00;70.50;;;;;;5063393;28;20044;-68
2022/08/12 12:42:08;;;;;;;3.92;3.35;;;30.00;70.50;;;;;;5054637;28;20103;-68
2022/08/12 12:44:33;;;;;;;6.63;3.50;;;30.00;71.60;;;;;;5045466;28;20094;-68
2022/08/12 12:46:59;;;;;;;4.75;3.53;;;30.00;72.20;;;;;;5047276;28;20469;-68
2022/08/12 12:49:24;;;;;;;5.60;3.70;;;30.00;73.50;;;;;;5036773;28;20128;-67
2022/08/12 12:51:50;;;;;;;6.03;3.50;;;30.10;73.50;;;;;;5047370;28;20459;-68
2022/08/12 12:54:16;;;;;;;4.38;3.45;;;30.00;66.90;;;;;;5045614;28;20041;-69
2022/08/12 12:56:43;;;;;;;6.20;3.70;;;30.00;67.90;;;;;;5044865;28;20045;-68
2022/08/12 12:59:09;;;;;;;3.97;3.58;;;30.00;68.50;;;;;;5041459;28;20087;-68
2022/08/12 13:01:37;;;;;;;5.18;3.47;;;30.10;71.50;;;;;;5046383;28;20377;-68
2022/08/12 13:04:06;;;;;;;4.57;3.22;;;30.10;71.50;;;;;;5042358;28;20045;-68
2022/08/12 13:06:32;;;;;;;6.82;3.67;;;30.10;71.20;;;;;;5061044;28;20047;-68
2022/08/12 13:09:00;;;;;;;6.50;3.33;;;30.10;71.60;;;;;;5048185;28;20037;-68
2022/08/12 13:11:28;;;;;;;4.53;3.28;;;30.10;70.70;;;;;;5047830;28;20524;-68
2022/08/12 13:13:56;;;;;;;4.47;3.30;;;30.10;71.80;;;;;;5048025;28;20317;-68
2022/08/12 13:16:28;;;;;;;5.90;3.20;;;30.10;70.90;;;;;;5047113;28;20045;-67
2022/08/12 13:18:54;;;;;;;4.05;2.90;;;30.20;73.00;;;;;;5048085;28;20456;-66
2022/08/12 13:21:20;;;;;;;6.32;3.10;;;30.20;71.60;;;;;;5049341;28;20076;-67
2022/08/12 13:23:49;;;;;;;6.53;3.53;;;30.10;68.80;;;;;;5056963;28;20049;-68
2022/08/12 13:26:17;;;;;;;6.63;3.75;;;30.10;66.40;;;;;;5046943;28;20069;-68
2022/08/12 13:28:45;;;;;;;5.07;3.17;;;30.10;66.50;;;;;;5047065;28;20128;-68
2022/08/12 13:31:12;;;;;;;6.00;3.40;;;30.10;67.80;;;;;;5047821;28;20562;-68
2022/08/12 13:33:38;;;;;;;9.20;3.65;;;30.10;70.30;;;;;;5045702;28;20110;-67
2022/08/12 13:36:04;;;;;;;3.90;2.88;;;30.10;69.10;;;;;;5045722;28;20427;-68
2022/08/12 13:38:42;;;;;;;6.25;3.70;;;30.10;67.20;;;;;;5048174;28;20045;-68
2022/08/12 13:41:14;;;;;;;4.40;3.10;;;30.10;67.00;;;;;;5045035;28;20037;-66
2022/08/12 13:43:40;;;;;;;4.63;3.63;;;30.10;67.80;;;;;;5046484;28;20600;-67
2022/08/12 13:46:08;;;;;;;5.30;3.30;;;30.10;68.10;;;;;;5029472;28;20029;-66
2022/08/12 13:48:35;;;;;;;5.22;3.20;;;30.00;68.40;;;;;;5047250;28;20056;-68
2022/08/12 13:51:01;;;;;;;4.22;3.33;;;30.00;68.40;;;;;;5039090;28;20399;-67
2022/08/12 13:53:27;;;;;;;3.28;2.97;;;30.00;68.10;;;;;;5036016;28;20123;-67
2022/08/12 13:55:53;;;;;;;6.72;3.58;;;30.10;68.40;;;;;;5047019;28;20468;-66
2022/08/12 13:58:20;;;;;;;4.43;3.45;;;30.10;69.40;;;;;;5028570;28;20032;-66
2022/08/12 14:00:50;;;;;;;5.82;3.40;;;30.10;69.80;;;;;;5045972;28;20106;-67
2022/08/12 14:03:23;;;;;;;5.47;3.78;;;30.10;68.50;;;;;;5044399;28;20044;-67
2022/08/12 14:05:49;;;;;;;5.97;3.45;;;30.20;68.20;;;;;;5043556;28;20043;-67
2022/08/12 14:08:15;;;;;;;5.00;3.42;;;30.20;68.60;;;;;;5058887;28;20038;-65
2022/08/12 14:10:48;;;;;;;6.57;3.95;;;30.20;68.80;;;;;;5063572;28;20053;-67
2022/08/12 14:13:27;;;;;;;10.55;3.90;;;30.10;67.00;;;;;;5050069;28;20408;-66
2022/08/12 14:15:59;;;;;;;4.80;3.50;;;30.10;67.20;;;;;;5039900;28;20356;-66
2022/08/12 14:18:24;;;;;;;;;;;30.10;66.90;;;;;;5046317;28;20044;-66
2022/08/12 14:21:01;;;;;;;6.80;3.75;;;30.10;65.10;;;;;;5051218;28;19923;-67
2022/08/12 14:23:31;;;;;;;4.75;3.67;;;30.10;66.80;;;;;;5042834;28;20072;-67
2022/08/12 14:25:59;;;;;;;7.35;4.00;;;30.10;66.90;;;;;;5047263;28;20067;-67
2022/08/12 14:28:33;;;;;;;4.82;3.97;;;30.10;67.10;;;;;;5045171;28;20117;-67
2022/08/12 14:31:01;;;;;;;5.05;4.10;;;30.10;67.60;;;;;;5033189;28;20068;-67
2022/08/12 14:33:33;;;;;;;4.72;3.60;;;30.10;66.60;;;;;;5047047;28;20069;-67
2022/08/12 14:36:04;;;;;;;4.20;3.80;;;30.10;67.70;;;;;;5047363;28;20033;-66
2022/08/12 14:38:38;;;;;;;4.40;3.92;;;30.20;67.80;;;;;;5045954;28;20043;-67